sensor_id;sensor_type;location;lat;lon;timestamp;P1;durP1;ratioP1;P2;durP2;ratioP2
63050;SDS011;49136;47.416;19.402;2023-12-22T00:00:26;131.18;;;123.65;;
63050;SDS011;49136;47.416;19.402;2023-12-22T00:02:51;265.55;;;250.70;;
63050;SDS011;49136;47.416;19.402;2023-12-22T00:05:17;370.98;;;347.65;;
63050;SDS011;49136;47.416;19.402;2023-12-22T00:07:42;258.70;;;243.77;;
63050;SDS011;49136;47.416;19.402;2023-12-22T00:10:08;146.75;;;138.80;;
63050;SDS011;49136;47.416;19.402;2023-12-22T00:12:34;220.82;;;208.02;;
63050;SDS011;49136;47.416;19.402;2023-12-22T00:14:59;358.77;;;335.90;;
63050;SDS011;49136;47.416;19.402;2023-12-22T00:17:25;273.25;;;256.15;;
63050;SDS011;49136;47.416;19.402;2023-12-22T00:19:50;247.02;;;232.80;;
63050;SDS011;49136;47.416;19.402;2023-12-22T00:22:16;238.52;;;224.95;;
63050;SDS011;49136;47.416;19.402;2023-12-22T00:24:41;209.52;;;198.48;;
63050;SDS011;49136;47.416;19.402;2023-12-22T00:27:07;309.75;;;292.00;;
63050;SDS011;49136;47.416;19.402;2023-12-22T00:29:32;184.98;;;175.20;;
63050;SDS011;49136;47.416;19.402;2023-12-22T00:32:00;139.77;;;132.02;;
63050;SDS011;49136;47.416;19.402;2023-12-22T00:34:26;133.27;;;126.30;;
63050;SDS011;49136;47.416;19.402;2023-12-22T00:36:52;124.63;;;117.88;;
63050;SDS011;49136;47.416;19.402;2023-12-22T00:39:17;131.73;;;124.80;;
63050;SDS011;49136;47.416;19.402;2023-12-22T00:41:42;139.32;;;131.98;;
63050;SDS011;49136;47.416;19.402;2023-12-22T00:44:08;96.40;;;91.30;;
63050;SDS011;49136;47.416;19.402;2023-12-22T00:46:33;100.68;;;95.00;;
63050;SDS011;49136;47.416;19.402;2023-12-22T00:48:58;214.60;;;202.30;;
63050;SDS011;49136;47.416;19.402;2023-12-22T00:51:24;138.35;;;130.57;;
63050;SDS011;49136;47.416;19.402;2023-12-22T00:53:49;118.72;;;112.47;;
63050;SDS011;49136;47.416;19.402;2023-12-22T00:56:15;136.40;;;128.98;;
63050;SDS011;49136;47.416;19.402;2023-12-22T00:58:40;129.55;;;122.90;;
63050;SDS011;49136;47.416;19.402;2023-12-22T01:01:06;108.82;;;103.15;;
63050;SDS011;49136;47.416;19.402;2023-12-22T01:03:31;117.07;;;110.90;;
63050;SDS011;49136;47.416;19.402;2023-12-22T01:05:56;203.20;;;191.57;;
63050;SDS011;49136;47.416;19.402;2023-12-22T01:08:22;195.10;;;184.10;;
63050;SDS011;49136;47.416;19.402;2023-12-22T01:10:47;120.75;;;114.38;;
63050;SDS011;49136;47.416;19.402;2023-12-22T01:13:13;150.18;;;142.43;;
63050;SDS011;49136;47.416;19.402;2023-12-22T01:15:38;151.82;;;143.82;;
63050;SDS011;49136;47.416;19.402;2023-12-22T01:18:04;150.90;;;142.63;;
63050;SDS011;49136;47.416;19.402;2023-12-22T01:20:30;183.45;;;173.65;;
63050;SDS011;49136;47.416;19.402;2023-12-22T01:22:55;262.30;;;246.68;;
63050;SDS011;49136;47.416;19.402;2023-12-22T01:25:20;225.55;;;212.40;;
63050;SDS011;49136;47.416;19.402;2023-12-22T01:27:46;190.20;;;179.80;;
63050;SDS011;49136;47.416;19.402;2023-12-22T01:30:13;192.43;;;182.30;;
63050;SDS011;49136;47.416;19.402;2023-12-22T01:32:38;178.55;;;168.95;;
63050;SDS011;49136;47.416;19.402;2023-12-22T01:35:04;187.90;;;177.65;;
63050;SDS011;49136;47.416;19.402;2023-12-22T01:37:34;257.05;;;236.43;;
63050;SDS011;49136;47.416;19.402;2023-12-22T01:40:00;114.82;;;108.95;;
63050;SDS011;49136;47.416;19.402;2023-12-22T01:42:25;101.10;;;95.88;;
63050;SDS011;49136;47.416;19.402;2023-12-22T01:44:50;109.32;;;103.70;;
63050;SDS011;49136;47.416;19.402;2023-12-22T01:47:16;109.78;;;104.03;;
63050;SDS011;49136;47.416;19.402;2023-12-22T01:49:41;93.38;;;88.55;;
63050;SDS011;49136;47.416;19.402;2023-12-22T01:52:07;94.68;;;88.90;;
63050;SDS011;49136;47.416;19.402;2023-12-22T01:54:32;122.55;;;115.88;;
63050;SDS011;49136;47.416;19.402;2023-12-22T01:56:59;105.40;;;99.75;;
63050;SDS011;49136;47.416;19.402;2023-12-22T01:59:25;177.68;;;168.02;;
63050;SDS011;49136;47.416;19.402;2023-12-22T02:01:51;105.13;;;99.70;;
63050;SDS011;49136;47.416;19.402;2023-12-22T02:04:18;287.33;;;265.25;;
63050;SDS011;49136;47.416;19.402;2023-12-22T02:06:44;224.65;;;212.05;;
63050;SDS011;49136;47.416;19.402;2023-12-22T02:09:09;136.50;;;129.18;;
63050;SDS011;49136;47.416;19.402;2023-12-22T02:11:36;117.38;;;110.68;;
63050;SDS011;49136;47.416;19.402;2023-12-22T02:14:03;135.90;;;128.55;;
63050;SDS011;49136;47.416;19.402;2023-12-22T02:16:32;126.63;;;119.85;;
63050;SDS011;49136;47.416;19.402;2023-12-22T02:19:09;110.55;;;104.97;;
63050;SDS011;49136;47.416;19.402;2023-12-22T02:21:59;115.43;;;109.55;;
63050;SDS011;49136;47.416;19.402;2023-12-22T02:24:29;175.73;;;166.60;;
63050;SDS011;49136;47.416;19.402;2023-12-22T02:26:55;227.45;;;213.43;;
63050;SDS011;49136;47.416;19.402;2023-12-22T02:29:37;181.75;;;172.20;;
63050;SDS011;49136;47.416;19.402;2023-12-22T02:32:10;128.63;;;122.15;;
63050;SDS011;49136;47.416;19.402;2023-12-22T02:34:39;176.93;;;167.17;;
63050;SDS011;49136;47.416;19.402;2023-12-22T02:37:07;236.40;;;222.35;;
63050;SDS011;49136;47.416;19.402;2023-12-22T02:39:34;142.13;;;134.50;;
63050;SDS011;49136;47.416;19.402;2023-12-22T02:42:01;245.55;;;232.25;;
63050;SDS011;49136;47.416;19.402;2023-12-22T02:44:28;135.80;;;128.88;;
63050;SDS011;49136;47.416;19.402;2023-12-22T02:46:54;144.38;;;136.88;;
63050;SDS011;49136;47.416;19.402;2023-12-22T02:49:20;121.55;;;115.38;;
63050;SDS011;49136;47.416;19.402;2023-12-22T02:51:45;192.90;;;182.40;;
63050;SDS011;49136;47.416;19.402;2023-12-22T02:54:10;144.68;;;136.82;;
63050;SDS011;49136;47.416;19.402;2023-12-22T02:56:36;288.80;;;266.55;;
63050;SDS011;49136;47.416;19.402;2023-12-22T02:59:01;176.85;;;167.07;;
63050;SDS011;49136;47.416;19.402;2023-12-22T03:01:27;163.73;;;154.55;;
63050;SDS011;49136;47.416;19.402;2023-12-22T03:03:52;158.45;;;150.02;;
63050;SDS011;49136;47.416;19.402;2023-12-22T03:06:17;268.60;;;253.65;;
63050;SDS011;49136;47.416;19.402;2023-12-22T03:08:43;197.05;;;186.43;;
63050;SDS011;49136;47.416;19.402;2023-12-22T03:11:08;205.60;;;194.63;;
63050;SDS011;49136;47.416;19.402;2023-12-22T03:13:33;180.20;;;170.32;;
63050;SDS011;49136;47.416;19.402;2023-12-22T03:15:59;190.27;;;180.10;;
63050;SDS011;49136;47.416;19.402;2023-12-22T03:18:24;194.77;;;184.65;;
63050;SDS011;49136;47.416;19.402;2023-12-22T03:20:50;162.70;;;154.38;;
63050;SDS011;49136;47.416;19.402;2023-12-22T03:23:15;398.75;;;372.77;;
63050;SDS011;49136;47.416;19.402;2023-12-22T03:25:40;172.40;;;163.57;;
63050;SDS011;49136;47.416;19.402;2023-12-22T03:28:06;188.13;;;178.13;;
63050;SDS011;49136;47.416;19.402;2023-12-22T03:30:32;225.73;;;213.23;;
63050;SDS011;49136;47.416;19.402;2023-12-22T03:32:57;293.00;;;276.83;;
63050;SDS011;49136;47.416;19.402;2023-12-22T03:35:23;251.38;;;237.73;;
63050;SDS011;49136;47.416;19.402;2023-12-22T03:37:48;206.60;;;195.88;;
63050;SDS011;49136;47.416;19.402;2023-12-22T03:40:13;196.63;;;186.35;;
63050;SDS011;49136;47.416;19.402;2023-12-22T03:42:39;207.50;;;196.32;;
63050;SDS011;49136;47.416;19.402;2023-12-22T03:45:04;275.73;;;258.58;;
63050;SDS011;49136;47.416;19.402;2023-12-22T03:47:30;194.68;;;184.32;;
63050;SDS011;49136;47.416;19.402;2023-12-22T03:49:56;326.90;;;304.58;;
63050;SDS011;49136;47.416;19.402;2023-12-22T03:52:21;388.77;;;364.98;;
63050;SDS011;49136;47.416;19.402;2023-12-22T03:54:46;271.85;;;255.80;;
63050;SDS011;49136;47.416;19.402;2023-12-22T03:57:12;218.77;;;207.27;;
63050;SDS011;49136;47.416;19.402;2023-12-22T03:59:37;328.52;;;307.38;;
63050;SDS011;49136;47.416;19.402;2023-12-22T04:02:03;178.15;;;168.95;;
63050;SDS011;49136;47.416;19.402;2023-12-22T04:04:28;399.17;;;369.55;;
63050;SDS011;49136;47.416;19.402;2023-12-22T04:06:54;213.90;;;202.50;;
63050;SDS011;49136;47.416;19.402;2023-12-22T04:09:20;185.38;;;174.73;;
63050;SDS011;49136;47.416;19.402;2023-12-22T04:11:46;211.13;;;200.27;;
63050;SDS011;49136;47.416;19.402;2023-12-22T04:14:11;297.88;;;281.20;;
63050;SDS011;49136;47.416;19.402;2023-12-22T04:16:37;302.95;;;286.58;;
63050;SDS011;49136;47.416;19.402;2023-12-22T04:19:03;291.77;;;274.48;;
63050;SDS011;49136;47.416;19.402;2023-12-22T04:21:28;227.57;;;215.30;;
63050;SDS011;49136;47.416;19.402;2023-12-22T04:23:54;291.55;;;273.52;;
63050;SDS011;49136;47.416;19.402;2023-12-22T04:26:19;222.48;;;210.75;;
63050;SDS011;49136;47.416;19.402;2023-12-22T04:28:45;230.68;;;218.90;;
63050;SDS011;49136;47.416;19.402;2023-12-22T04:31:10;411.17;;;379.00;;
63050;SDS011;49136;47.416;19.402;2023-12-22T04:33:35;242.45;;;229.73;;
63050;SDS011;49136;47.416;19.402;2023-12-22T04:36:01;288.58;;;272.88;;
63050;SDS011;49136;47.416;19.402;2023-12-22T04:38:26;312.50;;;295.40;;
63050;SDS011;49136;47.416;19.402;2023-12-22T04:40:52;363.70;;;342.73;;
63050;SDS011;49136;47.416;19.402;2023-12-22T04:43:17;432.83;;;404.23;;
63050;SDS011;49136;47.416;19.402;2023-12-22T04:45:42;508.65;;;442.83;;
63050;SDS011;49136;47.416;19.402;2023-12-22T04:48:08;436.25;;;408.58;;
63050;SDS011;49136;47.416;19.402;2023-12-22T04:50:33;561.80;;;493.40;;
63050;SDS011;49136;47.416;19.402;2023-12-22T04:52:59;367.27;;;334.60;;
63050;SDS011;49136;47.416;19.402;2023-12-22T04:55:24;292.55;;;263.25;;
63050;SDS011;49136;47.416;19.402;2023-12-22T04:57:49;296.65;;;273.85;;
63050;SDS011;49136;47.416;19.402;2023-12-22T05:00:15;349.80;;;330.90;;
63050;SDS011;49136;47.416;19.402;2023-12-22T05:02:40;342.52;;;323.48;;
63050;SDS011;49136;47.416;19.402;2023-12-22T05:05:06;242.82;;;228.82;;
63050;SDS011;49136;47.416;19.402;2023-12-22T05:07:33;351.38;;;332.00;;
63050;SDS011;49136;47.416;19.402;2023-12-22T05:09:58;332.65;;;314.45;;
63050;SDS011;49136;47.416;19.402;2023-12-22T05:12:24;338.05;;;316.30;;
63050;SDS011;49136;47.416;19.402;2023-12-22T05:14:49;380.42;;;357.73;;
63050;SDS011;49136;47.416;19.402;2023-12-22T05:17:14;318.65;;;300.48;;
63050;SDS011;49136;47.416;19.402;2023-12-22T05:19:40;365.73;;;340.58;;
63050;SDS011;49136;47.416;19.402;2023-12-22T05:22:05;350.85;;;331.58;;
63050;SDS011;49136;47.416;19.402;2023-12-22T05:24:31;256.75;;;242.52;;
63050;SDS011;49136;47.416;19.402;2023-12-22T05:26:56;371.10;;;350.98;;
63050;SDS011;49136;47.416;19.402;2023-12-22T05:29:21;380.77;;;350.35;;
63050;SDS011;49136;47.416;19.402;2023-12-22T05:31:47;368.10;;;347.13;;
63050;SDS011;49136;47.416;19.402;2023-12-22T05:34:12;355.08;;;335.60;;
63050;SDS011;49136;47.416;19.402;2023-12-22T05:36:38;395.00;;;371.70;;
63050;SDS011;49136;47.416;19.402;2023-12-22T05:39:03;368.50;;;348.88;;
63050;SDS011;49136;47.416;19.402;2023-12-22T05:41:29;382.70;;;361.90;;
63050;SDS011;49136;47.416;19.402;2023-12-22T05:43:54;373.10;;;345.17;;
63050;SDS011;49136;47.416;19.402;2023-12-22T05:46:19;425.92;;;402.52;;
63050;SDS011;49136;47.416;19.402;2023-12-22T05:48:45;384.42;;;363.75;;
63050;SDS011;49136;47.416;19.402;2023-12-22T05:51:10;333.13;;;314.60;;
63050;SDS011;49136;47.416;19.402;2023-12-22T05:53:41;409.40;;;386.27;;
63050;SDS011;49136;47.416;19.402;2023-12-22T05:56:17;361.15;;;341.20;;
63050;SDS011;49136;47.416;19.402;2023-12-22T05:58:44;361.88;;;342.25;;
63050;SDS011;49136;47.416;19.402;2023-12-22T06:01:14;409.58;;;386.13;;
63050;SDS011;49136;47.416;19.402;2023-12-22T06:03:43;418.33;;;395.88;;
63050;SDS011;49136;47.416;19.402;2023-12-22T06:06:12;381.08;;;359.55;;
63050;SDS011;49136;47.416;19.402;2023-12-22T06:08:37;442.20;;;413.30;;
63050;SDS011;49136;47.416;19.402;2023-12-22T06:11:03;411.02;;;388.35;;
63050;SDS011;49136;47.416;19.402;2023-12-22T06:13:30;444.67;;;417.05;;
63050;SDS011;49136;47.416;19.402;2023-12-22T06:15:55;374.70;;;354.30;;
63050;SDS011;49136;47.416;19.402;2023-12-22T06:18:20;358.73;;;339.85;;
63050;SDS011;49136;47.416;19.402;2023-12-22T06:20:46;398.08;;;375.75;;
63050;SDS011;49136;47.416;19.402;2023-12-22T06:23:11;380.52;;;359.77;;
63050;SDS011;49136;47.416;19.402;2023-12-22T06:25:36;320.88;;;303.13;;
63050;SDS011;49136;47.416;19.402;2023-12-22T06:28:02;443.48;;;418.67;;
63050;SDS011;49136;47.416;19.402;2023-12-22T06:30:28;449.15;;;424.30;;
63050;SDS011;49136;47.416;19.402;2023-12-22T06:32:53;339.25;;;319.55;;
63050;SDS011;49136;47.416;19.402;2023-12-22T06:35:19;420.58;;;383.90;;
63050;SDS011;49136;47.416;19.402;2023-12-22T06:37:48;426.88;;;395.67;;
63050;SDS011;49136;47.416;19.402;2023-12-22T06:40:14;348.73;;;327.90;;
63050;SDS011;49136;47.416;19.402;2023-12-22T06:42:40;437.80;;;412.33;;
63050;SDS011;49136;47.416;19.402;2023-12-22T06:45:06;414.90;;;389.80;;
63050;SDS011;49136;47.416;19.402;2023-12-22T06:47:31;437.45;;;411.27;;
63050;SDS011;49136;47.416;19.402;2023-12-22T06:49:57;369.67;;;347.27;;
63050;SDS011;49136;47.416;19.402;2023-12-22T06:52:22;407.25;;;382.23;;
63050;SDS011;49136;47.416;19.402;2023-12-22T06:54:48;415.77;;;393.15;;
63050;SDS011;49136;47.416;19.402;2023-12-22T06:57:15;302.55;;;284.92;;
63050;SDS011;49136;47.416;19.402;2023-12-22T06:59:41;375.88;;;351.17;;
63050;SDS011;49136;47.416;19.402;2023-12-22T07:02:07;316.80;;;299.52;;
63050;SDS011;49136;47.416;19.402;2023-12-22T07:07:32;381.95;;;361.77;;
63050;SDS011;49136;47.416;19.402;2023-12-22T07:09:57;352.15;;;333.58;;
63050;SDS011;49136;47.416;19.402;2023-12-22T07:12:23;269.65;;;255.82;;
63050;SDS011;49136;47.416;19.402;2023-12-22T07:14:48;305.92;;;289.33;;
63050;SDS011;49136;47.416;19.402;2023-12-22T07:17:13;374.95;;;353.42;;
63050;SDS011;49136;47.416;19.402;2023-12-22T07:19:39;341.08;;;320.58;;
63050;SDS011;49136;47.416;19.402;2023-12-22T07:22:04;296.10;;;280.25;;
63050;SDS011;49136;47.416;19.402;2023-12-22T07:24:30;291.13;;;275.42;;
63050;SDS011;49136;47.416;19.402;2023-12-22T07:26:55;328.38;;;310.45;;
63050;SDS011;49136;47.416;19.402;2023-12-22T07:29:20;366.67;;;345.40;;
63050;SDS011;49136;47.416;19.402;2023-12-22T07:31:46;226.55;;;214.80;;
63050;SDS011;49136;47.416;19.402;2023-12-22T07:34:11;292.13;;;276.70;;
63050;SDS011;49136;47.416;19.402;2023-12-22T07:36:37;300.25;;;284.95;;
63050;SDS011;49136;47.416;19.402;2023-12-22T07:39:02;342.35;;;320.33;;
63050;SDS011;49136;47.416;19.402;2023-12-22T07:41:28;298.50;;;279.45;;
63050;SDS011;49136;47.416;19.402;2023-12-22T07:43:53;246.52;;;233.75;;
63050;SDS011;49136;47.416;19.402;2023-12-22T07:46:19;195.23;;;185.65;;
63050;SDS011;49136;47.416;19.402;2023-12-22T07:48:47;211.23;;;200.18;;
63050;SDS011;49136;47.416;19.402;2023-12-22T07:51:12;145.07;;;137.85;;
63050;SDS011;49136;47.416;19.402;2023-12-22T07:53:38;156.65;;;148.63;;
63050;SDS011;49136;47.416;19.402;2023-12-22T07:56:03;172.43;;;163.27;;
63050;SDS011;49136;47.416;19.402;2023-12-22T07:58:30;180.63;;;170.75;;
63050;SDS011;49136;47.416;19.402;2023-12-22T08:00:57;114.35;;;108.35;;
63050;SDS011;49136;47.416;19.402;2023-12-22T08:03:23;105.10;;;99.63;;
63050;SDS011;49136;47.416;19.402;2023-12-22T08:05:49;131.82;;;124.35;;
63050;SDS011;49136;47.416;19.402;2023-12-22T08:08:14;221.60;;;209.07;;
63050;SDS011;49136;47.416;19.402;2023-12-22T08:10:40;179.82;;;166.48;;
63050;SDS011;49136;47.416;19.402;2023-12-22T08:13:06;88.03;;;83.50;;
63050;SDS011;49136;47.416;19.402;2023-12-22T08:15:31;78.47;;;74.45;;
63050;SDS011;49136;47.416;19.402;2023-12-22T08:17:57;113.75;;;108.10;;
63050;SDS011;49136;47.416;19.402;2023-12-22T08:20:23;72.07;;;68.28;;
63050;SDS011;49136;47.416;19.402;2023-12-22T08:22:48;101.20;;;96.07;;
63050;SDS011;49136;47.416;19.402;2023-12-22T08:25:15;125.78;;;119.03;;
63050;SDS011;49136;47.416;19.402;2023-12-22T08:27:41;108.70;;;102.30;;
63050;SDS011;49136;47.416;19.402;2023-12-22T08:30:07;72.78;;;69.05;;
63050;SDS011;49136;47.416;19.402;2023-12-22T08:32:33;146.77;;;137.60;;
63050;SDS011;49136;47.416;19.402;2023-12-22T08:34:59;187.73;;;176.27;;
63050;SDS011;49136;47.416;19.402;2023-12-22T08:37:24;139.93;;;131.55;;
63050;SDS011;49136;47.416;19.402;2023-12-22T08:39:50;58.63;;;55.78;;
63050;SDS011;49136;47.416;19.402;2023-12-22T08:42:16;113.25;;;106.90;;
63050;SDS011;49136;47.416;19.402;2023-12-22T08:44:42;117.50;;;108.75;;
63050;SDS011;49136;47.416;19.402;2023-12-22T08:47:07;48.50;;;46.05;;
63050;SDS011;49136;47.416;19.402;2023-12-22T08:49:33;154.98;;;141.57;;
63050;SDS011;49136;47.416;19.402;2023-12-22T08:52:01;209.38;;;194.88;;
63050;SDS011;49136;47.416;19.402;2023-12-22T08:54:28;83.15;;;78.85;;
63050;SDS011;49136;47.416;19.402;2023-12-22T08:56:54;165.55;;;154.93;;
63050;SDS011;49136;47.416;19.402;2023-12-22T08:59:19;200.00;;;186.75;;
63050;SDS011;49136;47.416;19.402;2023-12-22T09:01:45;103.30;;;97.07;;
63050;SDS011;49136;47.416;19.402;2023-12-22T09:04:10;175.80;;;162.68;;
63050;SDS011;49136;47.416;19.402;2023-12-22T09:06:36;155.95;;;146.23;;
63050;SDS011;49136;47.416;19.402;2023-12-22T09:09:02;131.10;;;123.80;;
63050;SDS011;49136;47.416;19.402;2023-12-22T09:11:28;88.70;;;83.70;;
63050;SDS011;49136;47.416;19.402;2023-12-22T09:13:56;71.03;;;67.43;;
63050;SDS011;49136;47.416;19.402;2023-12-22T09:16:22;351.02;;;319.92;;
63050;SDS011;49136;47.416;19.402;2023-12-22T09:18:48;213.63;;;199.93;;
63050;SDS011;49136;47.416;19.402;2023-12-22T09:21:14;78.22;;;74.35;;
63050;SDS011;49136;47.416;19.402;2023-12-22T09:23:40;105.85;;;100.10;;
63050;SDS011;49136;47.416;19.402;2023-12-22T09:26:09;93.60;;;88.72;;
63050;SDS011;49136;47.416;19.402;2023-12-22T09:28:35;127.03;;;115.55;;
63050;SDS011;49136;47.416;19.402;2023-12-22T09:31:00;92.70;;;87.63;;
63050;SDS011;49136;47.416;19.402;2023-12-22T09:33:26;140.80;;;128.05;;
63050;SDS011;49136;47.416;19.402;2023-12-22T09:35:51;196.82;;;184.23;;
63050;SDS011;49136;47.416;19.402;2023-12-22T09:38:17;130.63;;;123.22;;
63050;SDS011;49136;47.416;19.402;2023-12-22T09:40:42;255.65;;;239.10;;
63050;SDS011;49136;47.416;19.402;2023-12-22T09:43:08;221.52;;;207.68;;
63050;SDS011;49136;47.416;19.402;2023-12-22T09:45:35;132.60;;;125.30;;
63050;SDS011;49136;47.416;19.402;2023-12-22T09:48:02;247.77;;;230.48;;
63050;SDS011;49136;47.416;19.402;2023-12-22T09:50:28;99.47;;;94.45;;
63050;SDS011;49136;47.416;19.402;2023-12-22T09:52:55;134.10;;;126.75;;
63050;SDS011;49136;47.416;19.402;2023-12-22T09:55:22;152.48;;;143.57;;
63050;SDS011;49136;47.416;19.402;2023-12-22T09:57:48;122.88;;;115.95;;
63050;SDS011;49136;47.416;19.402;2023-12-22T10:00:15;190.95;;;178.93;;
63050;SDS011;49136;47.416;19.402;2023-12-22T10:02:41;250.18;;;235.45;;
63050;SDS011;49136;47.416;19.402;2023-12-22T10:05:08;182.05;;;171.82;;
63050;SDS011;49136;47.416;19.402;2023-12-22T10:07:35;224.43;;;210.35;;
63050;SDS011;49136;47.416;19.402;2023-12-22T10:10:00;230.02;;;213.20;;
63050;SDS011;49136;47.416;19.402;2023-12-22T10:12:29;136.63;;;129.68;;
63050;SDS011;49136;47.416;19.402;2023-12-22T10:14:56;280.80;;;264.33;;
63050;SDS011;49136;47.416;19.402;2023-12-22T10:17:24;458.13;;;412.85;;
63050;SDS011;49136;47.416;19.402;2023-12-22T10:19:51;327.83;;;308.60;;
63050;SDS011;49136;47.416;19.402;2023-12-22T10:22:16;256.58;;;242.23;;
63050;SDS011;49136;47.416;19.402;2023-12-22T10:24:43;216.70;;;205.77;;
63050;SDS011;49136;47.416;19.402;2023-12-22T10:27:12;286.60;;;272.02;;
63050;SDS011;49136;47.416;19.402;2023-12-22T10:29:39;274.38;;;260.30;;
63050;SDS011;49136;47.416;19.402;2023-12-22T10:32:05;238.57;;;226.38;;
63050;SDS011;49136;47.416;19.402;2023-12-22T10:34:31;311.60;;;295.85;;
63050;SDS011;49136;47.416;19.402;2023-12-22T10:37:00;352.98;;;333.80;;
63050;SDS011;49136;47.416;19.402;2023-12-22T10:39:27;353.92;;;333.23;;
63050;SDS011;49136;47.416;19.402;2023-12-22T10:41:56;340.15;;;319.98;;
63050;SDS011;49136;47.416;19.402;2023-12-22T10:44:26;299.63;;;283.70;;
63050;SDS011;49136;47.416;19.402;2023-12-22T10:46:52;384.48;;;353.08;;
63050;SDS011;49136;47.416;19.402;2023-12-22T10:49:21;442.05;;;413.40;;
63050;SDS011;49136;47.416;19.402;2023-12-22T10:51:48;344.52;;;326.90;;
63050;SDS011;49136;47.416;19.402;2023-12-22T10:54:14;333.33;;;316.40;;
63050;SDS011;49136;47.416;19.402;2023-12-22T10:56:39;586.55;;;527.63;;
63050;SDS011;49136;47.416;19.402;2023-12-22T10:59:05;327.63;;;310.30;;
63050;SDS011;49136;47.416;19.402;2023-12-22T11:01:31;339.23;;;320.98;;
63050;SDS011;49136;47.416;19.402;2023-12-22T11:04:01;406.65;;;375.58;;
63050;SDS011;49136;47.416;19.402;2023-12-22T11:06:29;407.13;;;383.20;;
63050;SDS011;49136;47.416;19.402;2023-12-22T11:08:56;377.88;;;357.38;;
63050;SDS011;49136;47.416;19.402;2023-12-22T11:11:35;392.98;;;371.98;;
63050;SDS011;49136;47.416;19.402;2023-12-22T11:14:04;401.80;;;378.48;;
63050;SDS011;49136;47.416;19.402;2023-12-22T11:16:31;390.02;;;368.13;;
63050;SDS011;49136;47.416;19.402;2023-12-22T11:18:58;683.30;;;557.83;;
63050;SDS011;49136;47.416;19.402;2023-12-22T11:21:25;376.20;;;355.35;;
63050;SDS011;49136;47.416;19.402;2023-12-22T11:23:51;363.23;;;342.60;;
63050;SDS011;49136;47.416;19.402;2023-12-22T11:26:18;310.15;;;294.73;;
63050;SDS011;49136;47.416;19.402;2023-12-22T11:28:45;360.15;;;340.92;;
63050;SDS011;49136;47.416;19.402;2023-12-22T11:31:12;346.55;;;325.30;;
63050;SDS011;49136;47.416;19.402;2023-12-22T11:33:43;321.23;;;304.95;;
63050;SDS011;49136;47.416;19.402;2023-12-22T11:36:10;167.70;;;159.32;;
63050;SDS011;49136;47.416;19.402;2023-12-22T11:38:42;339.05;;;315.60;;
63050;SDS011;49136;47.416;19.402;2023-12-22T11:41:19;267.45;;;253.10;;
63050;SDS011;49136;47.416;19.402;2023-12-22T11:43:50;326.08;;;303.33;;
63050;SDS011;49136;47.416;19.402;2023-12-22T11:46:16;347.88;;;323.42;;
63050;SDS011;49136;47.416;19.402;2023-12-22T11:48:48;223.35;;;212.32;;
63050;SDS011;49136;47.416;19.402;2023-12-22T11:51:17;269.65;;;255.50;;
63050;SDS011;49136;47.416;19.402;2023-12-22T11:53:43;408.88;;;379.70;;
63050;SDS011;49136;47.416;19.402;2023-12-22T11:56:10;279.35;;;261.77;;
63050;SDS011;49136;47.416;19.402;2023-12-22T11:58:40;266.20;;;250.25;;
63050;SDS011;49136;47.416;19.402;2023-12-22T12:01:16;242.13;;;228.90;;
63050;SDS011;49136;47.416;19.402;2023-12-22T12:09:12;339.38;;;315.95;;
63050;SDS011;49136;47.416;19.402;2023-12-22T12:12:08;323.50;;;305.38;;
63050;SDS011;49136;47.416;19.402;2023-12-22T12:14:33;306.38;;;289.38;;
63050;SDS011;49136;47.416;19.402;2023-12-22T12:17:06;314.63;;;295.02;;
63050;SDS011;49136;47.416;19.402;2023-12-22T12:19:38;448.63;;;408.70;;
63050;SDS011;49136;47.416;19.402;2023-12-22T12:22:06;419.90;;;395.80;;
63050;SDS011;49136;47.416;19.402;2023-12-22T12:24:35;315.00;;;293.30;;
63050;SDS011;49136;47.416;19.402;2023-12-22T12:27:02;379.48;;;354.05;;
63050;SDS011;49136;47.416;19.402;2023-12-22T12:29:28;607.42;;;517.22;;
63050;SDS011;49136;47.416;19.402;2023-12-22T12:31:53;401.58;;;370.50;;
63050;SDS011;49136;47.416;19.402;2023-12-22T12:34:28;432.65;;;409.48;;
63050;SDS011;49136;47.416;19.402;2023-12-22T12:36:54;385.73;;;356.15;;
63050;SDS011;49136;47.416;19.402;2023-12-22T12:39:19;324.25;;;307.55;;
63050;SDS011;49136;47.416;19.402;2023-12-22T12:41:53;306.02;;;290.83;;
63050;SDS011;49136;47.416;19.402;2023-12-22T12:44:19;360.00;;;340.05;;
63050;SDS011;49136;47.416;19.402;2023-12-22T12:46:46;357.88;;;339.45;;
63050;SDS011;49136;47.416;19.402;2023-12-22T12:49:11;325.20;;;308.88;;
63050;SDS011;49136;47.416;19.402;2023-12-22T12:54:22;411.10;;;388.10;;
63050;SDS011;49136;47.416;19.402;2023-12-22T12:56:47;364.50;;;340.90;;
63050;SDS011;49136;47.416;19.402;2023-12-22T12:59:14;320.23;;;303.05;;
63050;SDS011;49136;47.416;19.402;2023-12-22T13:01:44;373.83;;;350.27;;
63050;SDS011;49136;47.416;19.402;2023-12-22T13:04:11;411.10;;;388.52;;
63050;SDS011;49136;47.416;19.402;2023-12-22T13:06:43;425.63;;;402.42;;
63050;SDS011;49136;47.416;19.402;2023-12-22T13:09:09;541.90;;;498.08;;
63050;SDS011;49136;47.416;19.402;2023-12-22T13:11:34;410.20;;;387.17;;
63050;SDS011;49136;47.416;19.402;2023-12-22T13:14:01;401.98;;;376.10;;
63050;SDS011;49136;47.416;19.402;2023-12-22T13:16:27;393.27;;;369.35;;
63050;SDS011;49136;47.416;19.402;2023-12-22T13:18:59;393.50;;;368.40;;
63050;SDS011;49136;47.416;19.402;2023-12-22T13:21:25;575.60;;;479.00;;
63050;SDS011;49136;47.416;19.402;2023-12-22T13:24:13;392.27;;;370.38;;
63050;SDS011;49136;47.416;19.402;2023-12-22T13:26:41;437.60;;;414.23;;
63050;SDS011;49136;47.416;19.402;2023-12-22T13:29:07;505.92;;;471.85;;
63050;SDS011;49136;47.416;19.402;2023-12-22T13:31:33;565.63;;;512.25;;
63050;SDS011;49136;47.416;19.402;2023-12-22T13:34:01;495.02;;;464.52;;
63050;SDS011;49136;47.416;19.402;2023-12-22T13:36:26;444.73;;;420.25;;
63050;SDS011;49136;47.416;19.402;2023-12-22T13:38:52;480.45;;;454.10;;
63050;SDS011;49136;47.416;19.402;2023-12-22T13:41:18;480.05;;;454.15;;
63050;SDS011;49136;47.416;19.402;2023-12-22T13:43:44;432.95;;;408.63;;
63050;SDS011;49136;47.416;19.402;2023-12-22T13:46:16;498.25;;;471.00;;
63050;SDS011;49136;47.416;19.402;2023-12-22T13:48:42;511.85;;;483.90;;
63050;SDS011;49136;47.416;19.402;2023-12-22T13:51:09;519.72;;;491.02;;
63050;SDS011;49136;47.416;19.402;2023-12-22T13:53:35;519.17;;;490.83;;